Hermitage, Tennessee
Current Conditions -  °F | °C
As of 8:53 AM on Friday 19 Dec 2014 (Local Time) from KBNA Reporting Station
Overcast Overcast  
Wind Chill: 33°   Ceiling: 4800
Heat Index: 37°   Visibility: 9mi
Dew Point: 29°   Wind: 5mph
Humidity: 73%   Direction: 60°ENE
Pressure: 30.28"   Gusts: NA
Location:  36.2°N, 86.62°W
Report Text: KBNA 191453Z 06004KT 9SM OVC048 03/M02 A3028 RMK AO2 SLP258 T00281017 51012
Loading
Personal Weather Stations






























Interactive Weather Map New forecast layout! Learn more

10-Day Weather Forecast

Advertisements
Track Severe Weather on mobile